sensor_id;sensor_type;location;lat;lon;timestamp;temperature;humidity
67942;SHT31;54731;42.600;23.476;2023-04-25T00:01:03;10.03;83.56
67942;SHT31;54731;42.600;23.476;2023-04-25T00:03:28;10.06;83.22
67942;SHT31;54731;42.600;23.476;2023-04-25T00:05:53;10.05;83.38
67942;SHT31;54731;42.600;23.476;2023-04-25T00:08:19;10.05;83.57
67942;SHT31;54731;42.600;23.476;2023-04-25T00:10:44;10.02;83.55
67942;SHT31;54731;42.600;23.476;2023-04-25T00:13:09;9.99;83.57
67942;SHT31;54731;42.600;23.476;2023-04-25T00:15:35;9.96;83.45
67942;SHT31;54731;42.600;23.476;2023-04-25T00:18:00;9.99;83.96
67942;SHT31;54731;42.600;23.476;2023-04-25T00:20:25;9.99;84.36
67942;SHT31;54731;42.600;23.476;2023-04-25T00:22:50;9.93;84.48
67942;SHT31;54731;42.600;23.476;2023-04-25T00:25:16;9.96;84.64
67942;SHT31;54731;42.600;23.476;2023-04-25T00:27:41;10.03;84.40
67942;SHT31;54731;42.600;23.476;2023-04-25T00:30:07;9.99;84.53
67942;SHT31;54731;42.600;23.476;2023-04-25T00:32:32;9.99;84.46
67942;SHT31;54731;42.600;23.476;2023-04-25T00:34:58;10.01;84.76
67942;SHT31;54731;42.600;23.476;2023-04-25T00:37:23;9.99;84.55
67942;SHT31;54731;42.600;23.476;2023-04-25T00:39:48;10.01;84.42
67942;SHT31;54731;42.600;23.476;2023-04-25T00:42:14;10.05;84.30
67942;SHT31;54731;42.600;23.476;2023-04-25T00:44:40;10.06;83.93
67942;SHT31;54731;42.600;23.476;2023-04-25T00:47:06;10.10;83.45
67942;SHT31;54731;42.600;23.476;2023-04-25T00:49:32;10.12;83.28
67942;SHT31;54731;42.600;23.476;2023-04-25T00:51:57;10.08;82.96
67942;SHT31;54731;42.600;23.476;2023-04-25T00:54:23;10.13;82.63
67942;SHT31;54731;42.600;23.476;2023-04-25T00:56:48;10.13;82.45
67942;SHT31;54731;42.600;23.476;2023-04-25T00:59:14;10.06;82.38
67942;SHT31;54731;42.600;23.476;2023-04-25T01:01:41;10.10;81.90
67942;SHT31;54731;42.600;23.476;2023-04-25T01:04:06;10.06;81.88
67942;SHT31;54731;42.600;23.476;2023-04-25T01:06:32;10.10;81.67
67942;SHT31;54731;42.600;23.476;2023-04-25T01:08:57;10.16;81.03
67942;SHT31;54731;42.600;23.476;2023-04-25T01:11:22;10.08;80.67
67942;SHT31;54731;42.600;23.476;2023-04-25T01:13:48;10.06;80.31
67942;SHT31;54731;42.600;23.476;2023-04-25T01:16:13;10.05;80.12
67942;SHT31;54731;42.600;23.476;2023-04-25T01:18:40;10.05;80.09
67942;SHT31;54731;42.600;23.476;2023-04-25T01:21:10;10.06;79.94
67942;SHT31;54731;42.600;23.476;2023-04-25T01:23:40;10.03;80.23
67942;SHT31;54731;42.600;23.476;2023-04-25T01:26:09;10.05;79.88
67942;SHT31;54731;42.600;23.476;2023-04-25T01:28:35;10.08;79.46
67942;SHT31;54731;42.600;23.476;2023-04-25T01:31:01;10.14;79.78
67942;SHT31;54731;42.600;23.476;2023-04-25T01:33:27;10.12;79.94
67942;SHT31;54731;42.600;23.476;2023-04-25T01:35:52;10.13;79.95
67942;SHT31;54731;42.600;23.476;2023-04-25T01:38:17;10.12;79.98
67942;SHT31;54731;42.600;23.476;2023-04-25T01:40:44;10.13;79.69
67942;SHT31;54731;42.600;23.476;2023-04-25T01:43:10;10.13;79.40
67942;SHT31;54731;42.600;23.476;2023-04-25T01:45:37;10.14;80.30
67942;SHT31;54731;42.600;23.476;2023-04-25T01:48:02;10.20;80.31
67942;SHT31;54731;42.600;23.476;2023-04-25T01:50:28;10.20;80.11
67942;SHT31;54731;42.600;23.476;2023-04-25T01:52:53;10.19;80.23
67942;SHT31;54731;42.600;23.476;2023-04-25T01:55:19;10.24;80.08
67942;SHT31;54731;42.600;23.476;2023-04-25T01:57:44;10.20;80.20
67942;SHT31;54731;42.600;23.476;2023-04-25T02:00:10;10.24;80.12
67942;SHT31;54731;42.600;23.476;2023-04-25T02:02:36;10.23;80.09
67942;SHT31;54731;42.600;23.476;2023-04-25T02:05:01;10.20;79.69
67942;SHT31;54731;42.600;23.476;2023-04-25T02:07:26;10.19;79.66
67942;SHT31;54731;42.600;23.476;2023-04-25T02:09:51;10.24;79.48
67942;SHT31;54731;42.600;23.476;2023-04-25T02:12:17;10.22;79.62
67942;SHT31;54731;42.600;23.476;2023-04-25T02:14:42;10.16;80.55
67942;SHT31;54731;42.600;23.476;2023-04-25T02:17:08;10.10;81.33
67942;SHT31;54731;42.600;23.476;2023-04-25T02:19:33;10.06;81.50
67942;SHT31;54731;42.600;23.476;2023-04-25T02:21:58;10.06;81.51
67942;SHT31;54731;42.600;23.476;2023-04-25T02:24:24;9.99;81.88
67942;SHT31;54731;42.600;23.476;2023-04-25T02:26:49;9.92;82.23
67942;SHT31;54731;42.600;23.476;2023-04-25T02:29:15;9.88;82.15
67942;SHT31;54731;42.600;23.476;2023-04-25T02:31:40;9.85;82.02
67942;SHT31;54731;42.600;23.476;2023-04-25T02:34:06;9.81;81.96
67942;SHT31;54731;42.600;23.476;2023-04-25T02:36:31;9.75;82.09
67942;SHT31;54731;42.600;23.476;2023-04-25T02:38:56;9.69;82.32
67942;SHT31;54731;42.600;23.476;2023-04-25T02:41:21;9.61;82.95
67942;SHT31;54731;42.600;23.476;2023-04-25T02:43:47;9.51;83.53
67942;SHT31;54731;42.600;23.476;2023-04-25T02:46:12;9.49;83.73
67942;SHT31;54731;42.600;23.476;2023-04-25T02:48:37;9.47;83.53
67942;SHT31;54731;42.600;23.476;2023-04-25T02:51:03;9.54;83.00
67942;SHT31;54731;42.600;23.476;2023-04-25T02:53:28;9.51;82.42
67942;SHT31;54731;42.600;23.476;2023-04-25T02:55:53;9.49;82.32
67942;SHT31;54731;42.600;23.476;2023-04-25T02:58:19;9.47;82.21
67942;SHT31;54731;42.600;23.476;2023-04-25T03:00:44;9.37;82.18
67942;SHT31;54731;42.600;23.476;2023-04-25T03:03:09;9.44;82.22
67942;SHT31;54731;42.600;23.476;2023-04-25T03:05:34;9.35;82.46
67942;SHT31;54731;42.600;23.476;2023-04-25T03:08:00;9.32;82.58
67942;SHT31;54731;42.600;23.476;2023-04-25T03:10:26;9.31;82.54
67942;SHT31;54731;42.600;23.476;2023-04-25T03:12:51;9.30;82.27
67942;SHT31;54731;42.600;23.476;2023-04-25T03:15:16;9.32;82.23
67942;SHT31;54731;42.600;23.476;2023-04-25T03:17:42;9.24;82.53
67942;SHT31;54731;42.600;23.476;2023-04-25T03:20:08;9.20;82.35
67942;SHT31;54731;42.600;23.476;2023-04-25T03:22:33;9.16;82.27
67942;SHT31;54731;42.600;23.476;2023-04-25T03:24:59;9.14;82.46
67942;SHT31;54731;42.600;23.476;2023-04-25T03:27:24;9.14;82.73
67942;SHT31;54731;42.600;23.476;2023-04-25T03:29:49;9.10;83.10
67942;SHT31;54731;42.600;23.476;2023-04-25T03:32:15;9.08;83.15
67942;SHT31;54731;42.600;23.476;2023-04-25T03:34:40;9.07;83.18
67942;SHT31;54731;42.600;23.476;2023-04-25T03:37:05;9.08;83.25
67942;SHT31;54731;42.600;23.476;2023-04-25T03:39:30;9.13;82.89
67942;SHT31;54731;42.600;23.476;2023-04-25T03:41:56;9.23;82.32
67942;SHT31;54731;42.600;23.476;2023-04-25T03:44:21;9.31;81.96
67942;SHT31;54731;42.600;23.476;2023-04-25T03:46:46;9.32;82.16
67942;SHT31;54731;42.600;23.476;2023-04-25T03:49:12;9.32;82.01
67942;SHT31;54731;42.600;23.476;2023-04-25T03:51:37;9.32;81.95
67942;SHT31;54731;42.600;23.476;2023-04-25T03:54:02;9.35;82.61
67942;SHT31;54731;42.600;23.476;2023-04-25T03:56:28;9.38;83.32
67942;SHT31;54731;42.600;23.476;2023-04-25T03:58:53;9.28;83.77
67942;SHT31;54731;42.600;23.476;2023-04-25T04:01:18;9.23;84.84
67942;SHT31;54731;42.600;23.476;2023-04-25T04:03:43;9.14;85.09
67942;SHT31;54731;42.600;23.476;2023-04-25T04:06:09;8.97;86.26
67942;SHT31;54731;42.600;23.476;2023-04-25T04:08:34;8.94;86.95
67942;SHT31;54731;42.600;23.476;2023-04-25T04:10:59;9.04;87.00
67942;SHT31;54731;42.600;23.476;2023-04-25T04:13:26;9.11;86.84
67942;SHT31;54731;42.600;23.476;2023-04-25T04:15:51;9.16;86.70
67942;SHT31;54731;42.600;23.476;2023-04-25T04:18:16;9.23;86.60
67942;SHT31;54731;42.600;23.476;2023-04-25T04:20:42;9.28;86.48
67942;SHT31;54731;42.600;23.476;2023-04-25T04:23:07;9.37;86.33
67942;SHT31;54731;42.600;23.476;2023-04-25T04:25:32;9.41;86.18
67942;SHT31;54731;42.600;23.476;2023-04-25T04:27:58;9.49;86.20
67942;SHT31;54731;42.600;23.476;2023-04-25T04:30:24;9.61;86.12
67942;SHT31;54731;42.600;23.476;2023-04-25T04:32:50;9.71;86.03
67942;SHT31;54731;42.600;23.476;2023-04-25T04:35:16;9.82;85.02
67942;SHT31;54731;42.600;23.476;2023-04-25T04:37:41;9.88;84.87
67942;SHT31;54731;42.600;23.476;2023-04-25T04:40:07;9.91;85.06
67942;SHT31;54731;42.600;23.476;2023-04-25T04:42:33;9.92;84.67
67942;SHT31;54731;42.600;23.476;2023-04-25T04:44:58;9.86;84.61
67942;SHT31;54731;42.600;23.476;2023-04-25T04:47:23;9.86;84.27
67942;SHT31;54731;42.600;23.476;2023-04-25T04:49:48;9.85;84.45
67942;SHT31;54731;42.600;23.476;2023-04-25T04:52:14;9.92;84.62
67942;SHT31;54731;42.600;23.476;2023-04-25T04:54:39;10.01;84.56
67942;SHT31;54731;42.600;23.476;2023-04-25T04:57:04;9.99;84.43
67942;SHT31;54731;42.600;23.476;2023-04-25T04:59:30;9.89;84.96
67942;SHT31;54731;42.600;23.476;2023-04-25T05:01:55;9.77;86.37
67942;SHT31;54731;42.600;23.476;2023-04-25T05:04:20;9.81;86.35
67942;SHT31;54731;42.600;23.476;2023-04-25T05:06:45;9.88;86.27
67942;SHT31;54731;42.600;23.476;2023-04-25T05:09:11;9.89;86.27
67942;SHT31;54731;42.600;23.476;2023-04-25T05:11:36;9.92;86.23
67942;SHT31;54731;42.600;23.476;2023-04-25T05:14:01;9.81;86.44
67942;SHT31;54731;42.600;23.476;2023-04-25T05:16:27;9.72;86.76
67942;SHT31;54731;42.600;23.476;2023-04-25T05:18:55;9.81;86.47
67942;SHT31;54731;42.600;23.476;2023-04-25T05:21:20;9.77;86.32
67942;SHT31;54731;42.600;23.476;2023-04-25T05:23:46;9.83;86.32
67942;SHT31;54731;42.600;23.476;2023-04-25T05:26:11;9.93;86.15
67942;SHT31;54731;42.600;23.476;2023-04-25T05:28:36;9.93;85.85
67942;SHT31;54731;42.600;23.476;2023-04-25T05:31:03;9.82;85.87
67942;SHT31;54731;42.600;23.476;2023-04-25T05:33:29;9.65;86.01
67942;SHT31;54731;42.600;23.476;2023-04-25T05:35:54;9.71;86.03
67942;SHT31;54731;42.600;23.476;2023-04-25T05:38:19;9.77;85.57
67942;SHT31;54731;42.600;23.476;2023-04-25T05:40:44;9.79;85.15
67942;SHT31;54731;42.600;23.476;2023-04-25T05:43:10;9.77;85.45
67942;SHT31;54731;42.600;23.476;2023-04-25T05:45:35;9.62;85.76
67942;SHT31;54731;42.600;23.476;2023-04-25T05:48:00;9.68;86.03
67942;SHT31;54731;42.600;23.476;2023-04-25T05:50:26;9.69;85.98
67942;SHT31;54731;42.600;23.476;2023-04-25T05:52:51;9.75;85.87
67942;SHT31;54731;42.600;23.476;2023-04-25T05:55:17;9.79;85.88
67942;SHT31;54731;42.600;23.476;2023-04-25T05:57:42;9.85;85.70
67942;SHT31;54731;42.600;23.476;2023-04-25T06:00:12;9.91;85.48
67942;SHT31;54731;42.600;23.476;2023-04-25T06:02:38;9.92;85.28
67942;SHT31;54731;42.600;23.476;2023-04-25T06:05:03;9.96;85.65
67942;SHT31;54731;42.600;23.476;2023-04-25T06:07:29;10.02;85.83
67942;SHT31;54731;42.600;23.476;2023-04-25T06:09:54;10.10;85.92
67942;SHT31;54731;42.600;23.476;2023-04-25T06:12:20;10.19;85.98
67942;SHT31;54731;42.600;23.476;2023-04-25T06:14:45;10.24;85.82
67942;SHT31;54731;42.600;23.476;2023-04-25T06:17:10;10.17;85.22
67942;SHT31;54731;42.600;23.476;2023-04-25T06:19:36;10.10;85.05
67942;SHT31;54731;42.600;23.476;2023-04-25T06:22:01;10.22;85.16
67942;SHT31;54731;42.600;23.476;2023-04-25T06:24:27;10.28;85.56
67942;SHT31;54731;42.600;23.476;2023-04-25T06:26:53;10.40;85.45
67942;SHT31;54731;42.600;23.476;2023-04-25T06:29:20;10.49;85.33
67942;SHT31;54731;42.600;23.476;2023-04-25T06:31:45;10.44;84.55
67942;SHT31;54731;42.600;23.476;2023-04-25T06:34:10;10.42;85.17
67942;SHT31;54731;42.600;23.476;2023-04-25T06:36:36;10.42;84.87
67942;SHT31;54731;42.600;23.476;2023-04-25T06:39:01;10.52;84.71
67942;SHT31;54731;42.600;23.476;2023-04-25T06:41:26;10.57;84.46
67942;SHT31;54731;42.600;23.476;2023-04-25T06:43:51;10.44;84.73
67942;SHT31;54731;42.600;23.476;2023-04-25T06:46:17;10.49;85.11
67942;SHT31;54731;42.600;23.476;2023-04-25T06:48:42;10.59;85.08
67942;SHT31;54731;42.600;23.476;2023-04-25T06:51:07;10.52;84.54
67942;SHT31;54731;42.600;23.476;2023-04-25T06:53:32;10.52;84.26
67942;SHT31;54731;42.600;23.476;2023-04-25T06:55:58;10.56;83.72
67942;SHT31;54731;42.600;23.476;2023-04-25T06:58:23;10.49;83.17
67942;SHT31;54731;42.600;23.476;2023-04-25T07:00:49;10.64;83.00
67942;SHT31;54731;42.600;23.476;2023-04-25T07:03:14;10.75;83.01
67942;SHT31;54731;42.600;23.476;2023-04-25T07:05:39;10.91;83.07
67942;SHT31;54731;42.600;23.476;2023-04-25T07:08:04;11.00;83.21
67942;SHT31;54731;42.600;23.476;2023-04-25T07:10:30;11.11;82.30
67942;SHT31;54731;42.600;23.476;2023-04-25T07:12:55;11.17;82.11
67942;SHT31;54731;42.600;23.476;2023-04-25T07:15:20;11.35;81.58
67942;SHT31;54731;42.600;23.476;2023-04-25T07:17:46;11.43;79.30
67942;SHT31;54731;42.600;23.476;2023-04-25T07:20:11;11.38;76.99
67942;SHT31;54731;42.600;23.476;2023-04-25T07:22:36;11.70;77.82
67942;SHT31;54731;42.600;23.476;2023-04-25T07:25:02;11.89;78.09
67942;SHT31;54731;42.600;23.476;2023-04-25T07:27:27;12.00;77.31
67942;SHT31;54731;42.600;23.476;2023-04-25T07:29:52;12.06;76.05
67942;SHT31;54731;42.600;23.476;2023-04-25T07:32:18;12.12;74.45
67942;SHT31;54731;42.600;23.476;2023-04-25T07:34:43;12.17;73.30
67942;SHT31;54731;42.600;23.476;2023-04-25T07:37:08;12.30;73.77
67942;SHT31;54731;42.600;23.476;2023-04-25T07:39:34;12.44;74.34
67942;SHT31;54731;42.600;23.476;2023-04-25T07:41:59;12.61;74.04
67942;SHT31;54731;42.600;23.476;2023-04-25T07:44:24;12.74;73.96
67942;SHT31;54731;42.600;23.476;2023-04-25T07:46:50;12.84;73.87
67942;SHT31;54731;42.600;23.476;2023-04-25T07:49:15;12.91;73.44
67942;SHT31;54731;42.600;23.476;2023-04-25T07:51:41;12.88;72.59
67942;SHT31;54731;42.600;23.476;2023-04-25T07:54:06;12.95;74.15
67942;SHT31;54731;42.600;23.476;2023-04-25T07:56:31;12.94;72.84
67942;SHT31;54731;42.600;23.476;2023-04-25T07:58:56;13.08;73.29
67942;SHT31;54731;42.600;23.476;2023-04-25T08:01:22;13.11;74.12
67942;SHT31;54731;42.600;23.476;2023-04-25T08:03:47;12.85;74.65
67942;SHT31;54731;42.600;23.476;2023-04-25T08:06:12;13.04;74.82
67942;SHT31;54731;42.600;23.476;2023-04-25T08:08:38;13.06;75.22
67942;SHT31;54731;42.600;23.476;2023-04-25T08:11:03;13.16;75.08
67942;SHT31;54731;42.600;23.476;2023-04-25T08:13:28;13.20;73.68
67942;SHT31;54731;42.600;23.476;2023-04-25T08:15:55;13.35;73.24
67942;SHT31;54731;42.600;23.476;2023-04-25T08:18:20;13.40;72.85
67942;SHT31;54731;42.600;23.476;2023-04-25T08:20:47;13.53;73.28
67942;SHT31;54731;42.600;23.476;2023-04-25T08:23:12;13.66;72.24
67942;SHT31;54731;42.600;23.476;2023-04-25T08:25:43;13.69;70.46
67942;SHT31;54731;42.600;23.476;2023-04-25T08:28:08;13.69;65.33
67942;SHT31;54731;42.600;23.476;2023-04-25T08:30:33;13.79;66.03
67942;SHT31;54731;42.600;23.476;2023-04-25T08:32:59;14.01;67.87
67942;SHT31;54731;42.600;23.476;2023-04-25T08:35:24;14.24;68.33
67942;SHT31;54731;42.600;23.476;2023-04-25T08:37:50;14.17;67.61
67942;SHT31;54731;42.600;23.476;2023-04-25T08:40:15;14.24;67.22
67942;SHT31;54731;42.600;23.476;2023-04-25T08:42:44;14.42;65.57
67942;SHT31;54731;42.600;23.476;2023-04-25T08:45:10;14.62;64.98
67942;SHT31;54731;42.600;23.476;2023-04-25T08:47:37;14.76;63.80
67942;SHT31;54731;42.600;23.476;2023-04-25T08:50:03;14.91;62.51
67942;SHT31;54731;42.600;23.476;2023-04-25T08:52:35;14.96;59.64
67942;SHT31;54731;42.600;23.476;2023-04-25T08:55:01;14.99;60.73
67942;SHT31;54731;42.600;23.476;2023-04-25T08:57:27;14.92;61.64
67942;SHT31;54731;42.600;23.476;2023-04-25T08:59:52;14.98;59.42
67942;SHT31;54731;42.600;23.476;2023-04-25T09:02:18;14.88;59.83
67942;SHT31;54731;42.600;23.476;2023-04-25T09:04:43;14.86;59.36
67942;SHT31;54731;42.600;23.476;2023-04-25T09:07:09;14.52;62.51
67942;SHT31;54731;42.600;23.476;2023-04-25T09:09:34;14.52;62.12
67942;SHT31;54731;42.600;23.476;2023-04-25T09:12:00;14.65;62.81
67942;SHT31;54731;42.600;23.476;2023-04-25T09:14:25;14.82;62.64
67942;SHT31;54731;42.600;23.476;2023-04-25T09:19:23;15.25;64.10
67942;SHT31;54731;42.600;23.476;2023-04-25T09:21:49;15.46;63.94
67942;SHT31;54731;42.600;23.476;2023-04-25T09:24:14;15.46;64.70
67942;SHT31;54731;42.600;23.476;2023-04-25T09:26:40;15.61;66.38
67942;SHT31;54731;42.600;23.476;2023-04-25T09:29:06;15.54;69.33
67942;SHT31;54731;42.600;23.476;2023-04-25T09:31:33;15.81;70.43
67942;SHT31;54731;42.600;23.476;2023-04-25T09:34:01;15.60;66.78
67942;SHT31;54731;42.600;23.476;2023-04-25T09:36:27;15.51;68.07
67942;SHT31;54731;42.600;23.476;2023-04-25T09:38:53;15.70;68.93
67942;SHT31;54731;42.600;23.476;2023-04-25T09:41:24;16.00;66.81
67942;SHT31;54731;42.600;23.476;2023-04-25T09:43:50;16.04;63.29
67942;SHT31;54731;42.600;23.476;2023-04-25T09:46:16;16.18;62.92
67942;SHT31;54731;42.600;23.476;2023-04-25T09:48:48;16.17;64.35
67942;SHT31;54731;42.600;23.476;2023-04-25T09:51:14;16.21;64.87
67942;SHT31;54731;42.600;23.476;2023-04-25T09:53:44;15.87;63.81
67942;SHT31;54731;42.600;23.476;2023-04-25T09:56:10;15.91;66.26
67942;SHT31;54731;42.600;23.476;2023-04-25T09:58:37;16.00;66.36
67942;SHT31;54731;42.600;23.476;2023-04-25T10:01:05;16.02;67.55
67942;SHT31;54731;42.600;23.476;2023-04-25T10:03:32;15.44;67.72
67942;SHT31;54731;42.600;23.476;2023-04-25T10:06:02;15.15;68.62
67942;SHT31;54731;42.600;23.476;2023-04-25T10:08:32;15.22;59.34
67942;SHT31;54731;42.600;23.476;2023-04-25T10:11:01;15.26;59.93
67942;SHT31;54731;42.600;23.476;2023-04-25T10:13:27;15.10;56.89
67942;SHT31;54731;42.600;23.476;2023-04-25T10:15:53;14.99;58.81
67942;SHT31;54731;42.600;23.476;2023-04-25T10:18:19;14.85;62.22
67942;SHT31;54731;42.600;23.476;2023-04-25T10:20:45;14.85;58.20
67942;SHT31;54731;42.600;23.476;2023-04-25T10:23:13;14.86;62.78
67942;SHT31;54731;42.600;23.476;2023-04-25T10:25:40;15.02;63.46
67942;SHT31;54731;42.600;23.476;2023-04-25T10:28:06;15.32;62.68
67942;SHT31;54731;42.600;23.476;2023-04-25T10:30:31;15.64;59.43
67942;SHT31;54731;42.600;23.476;2023-04-25T10:32:58;15.84;59.67
67942;SHT31;54731;42.600;23.476;2023-04-25T10:35:26;15.96;61.85
67942;SHT31;54731;42.600;23.476;2023-04-25T10:38:08;15.64;59.08
67942;SHT31;54731;42.600;23.476;2023-04-25T10:40:35;15.40;61.34
67942;SHT31;54731;42.600;23.476;2023-04-25T10:46:26;15.49;67.86
67942;SHT31;54731;42.600;23.476;2023-04-25T10:48:56;15.59;67.10
67942;SHT31;54731;42.600;23.476;2023-04-25T10:56:24;15.16;66.35
67942;SHT31;54731;42.600;23.476;2023-04-25T10:58:50;15.56;68.08
67942;SHT31;54731;42.600;23.476;2023-04-25T11:01:20;15.74;66.39
67942;SHT31;54731;42.600;23.476;2023-04-25T11:03:45;15.80;62.14
67942;SHT31;54731;42.600;23.476;2023-04-25T11:06:23;15.50;57.63
67942;SHT31;54731;42.600;23.476;2023-04-25T11:08:51;15.22;63.36
67942;SHT31;54731;42.600;23.476;2023-04-25T11:11:17;14.99;64.46
67942;SHT31;54731;42.600;23.476;2023-04-25T11:13:43;14.86;65.54
67942;SHT31;54731;42.600;23.476;2023-04-25T11:16:08;14.51;62.57
67942;SHT31;54731;42.600;23.476;2023-04-25T11:18:34;14.18;64.68
67942;SHT31;54731;42.600;23.476;2023-04-25T11:20:59;13.76;66.15
67942;SHT31;54731;42.600;23.476;2023-04-25T11:23:25;13.89;65.35
67942;SHT31;54731;42.600;23.476;2023-04-25T11:25:51;13.99;65.93
67942;SHT31;54731;42.600;23.476;2023-04-25T11:28:21;13.87;67.59
67942;SHT31;54731;42.600;23.476;2023-04-25T11:30:49;13.96;68.74
67942;SHT31;54731;42.600;23.476;2023-04-25T11:33:15;14.04;72.84
67942;SHT31;54731;42.600;23.476;2023-04-25T11:35:40;14.48;72.53
67942;SHT31;54731;42.600;23.476;2023-04-25T11:38:06;14.65;71.54
67942;SHT31;54731;42.600;23.476;2023-04-25T11:40:31;15.05;73.06
67942;SHT31;54731;42.600;23.476;2023-04-25T11:42:59;15.49;71.22
67942;SHT31;54731;42.600;23.476;2023-04-25T11:45:25;15.49;69.74
67942;SHT31;54731;42.600;23.476;2023-04-25T11:47:51;15.59;67.22
67942;SHT31;54731;42.600;23.476;2023-04-25T11:50:16;15.79;63.99
67942;SHT31;54731;42.600;23.476;2023-04-25T11:52:45;15.79;63.66
67942;SHT31;54731;42.600;23.476;2023-04-25T11:55:19;15.76;62.73
67942;SHT31;54731;42.600;23.476;2023-04-25T11:57:46;15.81;63.36
67942;SHT31;54731;42.600;23.476;2023-04-25T12:02:43;15.84;64.00
67942;SHT31;54731;42.600;23.476;2023-04-25T12:05:10;16.08;63.23
67942;SHT31;54731;42.600;23.476;2023-04-25T12:07:35;16.42;64.22
67942;SHT31;54731;42.600;23.476;2023-04-25T12:10:06;16.35;62.01
67942;SHT31;54731;42.600;23.476;2023-04-25T12:12:35;16.45;62.80
67942;SHT31;54731;42.600;23.476;2023-04-25T12:17:40;16.24;64.21
67942;SHT31;54731;42.600;23.476;2023-04-25T12:20:09;15.83;62.62
67942;SHT31;54731;42.600;23.476;2023-04-25T12:22:35;15.16;66.34
67942;SHT31;54731;42.600;23.476;2023-04-25T12:25:00;14.98;66.77
67942;SHT31;54731;42.600;23.476;2023-04-25T12:27:26;14.78;68.65
67942;SHT31;54731;42.600;23.476;2023-04-25T12:29:55;14.58;70.54
67942;SHT31;54731;42.600;23.476;2023-04-25T12:32:21;14.40;70.51
67942;SHT31;54731;42.600;23.476;2023-04-25T12:34:46;14.41;70.32
67942;SHT31;54731;42.600;23.476;2023-04-25T12:37:12;14.34;70.84
67942;SHT31;54731;42.600;23.476;2023-04-25T12:39:37;14.38;69.01
67942;SHT31;54731;42.600;23.476;2023-04-25T12:42:03;14.37;68.25
67942;SHT31;54731;42.600;23.476;2023-04-25T12:44:28;14.40;68.33
67942;SHT31;54731;42.600;23.476;2023-04-25T12:46:54;14.40;66.04
67942;SHT31;54731;42.600;23.476;2023-04-25T12:49:19;14.37;67.03
67942;SHT31;54731;42.600;23.476;2023-04-25T12:51:44;14.25;69.02
67942;SHT31;54731;42.600;23.476;2023-04-25T12:54:10;14.23;69.51
67942;SHT31;54731;42.600;23.476;2023-04-25T12:56:35;14.21;70.47
67942;SHT31;54731;42.600;23.476;2023-04-25T12:59:00;14.01;67.66
67942;SHT31;54731;42.600;23.476;2023-04-25T13:01:26;14.03;67.80
67942;SHT31;54731;42.600;23.476;2023-04-25T13:03:51;13.94;68.56
67942;SHT31;54731;42.600;23.476;2023-04-25T13:06:18;13.97;67.56
67942;SHT31;54731;42.600;23.476;2023-04-25T13:08:43;13.80;68.81
67942;SHT31;54731;42.600;23.476;2023-04-25T13:11:09;13.71;71.15
67942;SHT31;54731;42.600;23.476;2023-04-25T13:13:34;13.65;70.15
67942;SHT31;54731;42.600;23.476;2023-04-25T13:16:04;13.71;69.82
67942;SHT31;54731;42.600;23.476;2023-04-25T13:18:30;13.69;70.06
67942;SHT31;54731;42.600;23.476;2023-04-25T13:20:55;13.77;70.34
67942;SHT31;54731;42.600;23.476;2023-04-25T13:23:21;13.86;69.18
67942;SHT31;54731;42.600;23.476;2023-04-25T13:25:47;13.79;67.07
67942;SHT31;54731;42.600;23.476;2023-04-25T13:28:13;13.79;68.31
67942;SHT31;54731;42.600;23.476;2023-04-25T13:30:39;13.89;68.01
67942;SHT31;54731;42.600;23.476;2023-04-25T13:33:04;13.79;68.45
67942;SHT31;54731;42.600;23.476;2023-04-25T13:35:30;13.94;66.15
67942;SHT31;54731;42.600;23.476;2023-04-25T13:37:56;14.04;64.62
67942;SHT31;54731;42.600;23.476;2023-04-25T13:40:21;14.13;64.37
67942;SHT31;54731;42.600;23.476;2023-04-25T13:42:47;14.16;64.43
67942;SHT31;54731;42.600;23.476;2023-04-25T13:45:12;14.14;65.98
67942;SHT31;54731;42.600;23.476;2023-04-25T13:47:37;14.17;66.99
67942;SHT31;54731;42.600;23.476;2023-04-25T13:50:04;14.24;67.63
67942;SHT31;54731;42.600;23.476;2023-04-25T13:52:30;14.04;69.37
67942;SHT31;54731;42.600;23.476;2023-04-25T13:54:55;14.01;69.29
67942;SHT31;54731;42.600;23.476;2023-04-25T13:57:20;14.00;69.98
67942;SHT31;54731;42.600;23.476;2023-04-25T13:59:45;14.00;70.94
67942;SHT31;54731;42.600;23.476;2023-04-25T14:02:11;13.84;71.71
67942;SHT31;54731;42.600;23.476;2023-04-25T14:04:36;13.50;72.31
67942;SHT31;54731;42.600;23.476;2023-04-25T14:07:03;13.39;72.28
67942;SHT31;54731;42.600;23.476;2023-04-25T14:09:28;13.39;72.44
67942;SHT31;54731;42.600;23.476;2023-04-25T14:11:55;13.18;72.01
67942;SHT31;54731;42.600;23.476;2023-04-25T14:14:21;12.96;69.69
67942;SHT31;54731;42.600;23.476;2023-04-25T14:16:47;12.67;70.97
67942;SHT31;54731;42.600;23.476;2023-04-25T14:19:13;12.53;72.70
67942;SHT31;54731;42.600;23.476;2023-04-25T14:21:38;12.41;73.26
67942;SHT31;54731;42.600;23.476;2023-04-25T14:24:04;12.48;74.20
67942;SHT31;54731;42.600;23.476;2023-04-25T14:26:29;12.54;72.71
67942;SHT31;54731;42.600;23.476;2023-04-25T14:28:55;12.63;73.03
67942;SHT31;54731;42.600;23.476;2023-04-25T14:31:20;12.71;74.36
67942;SHT31;54731;42.600;23.476;2023-04-25T14:33:45;12.74;72.94
67942;SHT31;54731;42.600;23.476;2023-04-25T14:36:10;12.74;71.71
67942;SHT31;54731;42.600;23.476;2023-04-25T14:38:36;12.81;73.00
67942;SHT31;54731;42.600;23.476;2023-04-25T14:41:01;12.83;73.67
67942;SHT31;54731;42.600;23.476;2023-04-25T14:43:26;12.91;74.71
67942;SHT31;54731;42.600;23.476;2023-04-25T14:45:52;12.87;75.16
67942;SHT31;54731;42.600;23.476;2023-04-25T14:48:18;12.78;75.71
67942;SHT31;54731;42.600;23.476;2023-04-25T14:50:43;12.89;75.22
67942;SHT31;54731;42.600;23.476;2023-04-25T14:53:08;12.98;73.83
67942;SHT31;54731;42.600;23.476;2023-04-25T14:55:34;13.06;74.73
67942;SHT31;54731;42.600;23.476;2023-04-25T14:57:59;13.22;74.90
67942;SHT31;54731;42.600;23.476;2023-04-25T15:00:24;13.28;74.16
67942;SHT31;54731;42.600;23.476;2023-04-25T15:02:50;13.39;74.07
67942;SHT31;54731;42.600;23.476;2023-04-25T15:05:15;13.39;74.65
67942;SHT31;54731;42.600;23.476;2023-04-25T15:07:41;13.52;74.48
67942;SHT31;54731;42.600;23.476;2023-04-25T15:10:09;13.49;71.76
67942;SHT31;54731;42.600;23.476;2023-04-25T15:12:35;13.53;73.02
67942;SHT31;54731;42.600;23.476;2023-04-25T15:15:01;13.70;73.04
67942;SHT31;54731;42.600;23.476;2023-04-25T15:17:26;13.86;73.16
67942;SHT31;54731;42.600;23.476;2023-04-25T15:19:51;13.94;69.40
67942;SHT31;54731;42.600;23.476;2023-04-25T15:22:17;14.09;64.72
67942;SHT31;54731;42.600;23.476;2023-04-25T15:24:42;14.09;65.93
67942;SHT31;54731;42.600;23.476;2023-04-25T15:27:07;14.21;64.82